Junction, Texas
Current Conditions -  °F | °C
As of 7:51 AM on Friday 28 Nov 2014 (Local Time) from KJCT Reporting Station
Overcast Overcast  
Wind Chill: 54°   Ceiling: 1200
Heat Index: 54°   Visibility: 10mi
Dew Point: 49°   Wind: 9mph
Humidity: 83%   Direction: 220°SW
Pressure: 30.27"   Gusts: NA
Location:  30.49°N, 99.77°W
Report Text: KJCT 281351Z AUTO 22008KT 10SM OVC012 12/09 A3027 RMK AO2 SLP231 T01220094
Loading
Personal Weather Stations






























Interactive Weather Map New forecast layout! Learn more

10-Day Weather Forecast

Advertisements
Track Severe Weather on mobile